createdAt,value
2016-12-05T00:00:58.278Z,0
2016-12-05T00:01:58.962Z,0
2016-12-05T00:02:59.632Z,0
2016-12-05T00:04:00.455Z,0
2016-12-05T00:05:01.115Z,0
2016-12-05T00:06:01.835Z,0
2016-12-05T00:07:02.717Z,0
2016-12-05T00:08:03.317Z,0
2016-12-05T00:09:03.940Z,0
2016-12-05T00:10:04.554Z,0
2016-12-05T00:11:05.186Z,0
2016-12-05T00:12:05.818Z,0
2016-12-05T00:13:06.460Z,0
2016-12-05T00:14:07.073Z,0
2016-12-05T00:15:07.702Z,0
2016-12-05T00:16:08.323Z,0
2016-12-05T00:17:08.955Z,0
2016-12-05T00:18:09.563Z,0
2016-12-05T00:19:10.183Z,0
2016-12-05T00:20:10.813Z,0
2016-12-05T00:21:11.440Z,0
2016-12-05T00:22:12.061Z,0
2016-12-05T00:23:12.685Z,0
2016-12-05T00:24:13.300Z,0
2016-12-05T00:25:13.909Z,0
2016-12-05T00:26:14.514Z,0
2016-12-05T00:27:15.120Z,0
2016-12-05T00:28:15.745Z,0
2016-12-05T00:29:16.351Z,0
2016-12-05T00:30:16.983Z,0
2016-12-05T00:31:17.615Z,0
2016-12-05T00:32:18.267Z,0
2016-12-05T00:33:18.954Z,0
2016-12-05T00:34:19.571Z,0
2016-12-05T00:35:20.208Z,0
2016-12-05T00:36:20.845Z,0
2016-12-05T00:37:21.530Z,0
2016-12-05T00:38:22.144Z,0
2016-12-05T00:39:22.773Z,0
2016-12-05T00:40:23.387Z,0
2016-12-05T00:41:23.999Z,0
2016-12-05T00:42:24.614Z,0
2016-12-05T00:43:25.243Z,0
2016-12-05T00:44:25.866Z,0
2016-12-05T00:45:26.484Z,0
2016-12-05T00:46:27.089Z,0
2016-12-05T00:47:27.713Z,0
2016-12-05T00:48:28.359Z,0
2016-12-05T00:49:28.981Z,0
2016-12-05T00:50:29.590Z,0
2016-12-05T00:51:30.192Z,0
2016-12-05T00:52:30.843Z,0
2016-12-05T00:53:31.429Z,0
2016-12-05T00:54:32.053Z,0
2016-12-05T00:55:32.681Z,0
2016-12-05T00:56:33.322Z,0
2016-12-05T00:57:33.934Z,0
2016-12-05T00:58:34.556Z,0
2016-12-05T00:59:35.155Z,0
2016-12-05T01:00:35.781Z,0
2016-12-05T01:01:36.395Z,0
2016-12-05T01:02:37.018Z,0
2016-12-05T01:03:37.693Z,0
2016-12-05T01:04:38.284Z,0
2016-12-05T01:05:38.907Z,0
2016-12-05T01:06:39.531Z,0
2016-12-05T01:07:40.156Z,0
2016-12-05T01:08:40.783Z,0
2016-12-05T01:09:41.415Z,0
2016-12-05T01:10:42.086Z,0
2016-12-05T01:11:42.747Z,0
2016-12-05T01:12:43.374Z,0
2016-12-05T01:13:44.020Z,0
2016-12-05T01:14:44.643Z,0
2016-12-05T01:15:45.271Z,0
2016-12-05T01:16:45.887Z,0
2016-12-05T01:17:46.508Z,0
2016-12-05T01:18:47.121Z,0
2016-12-05T01:19:47.741Z,0
2016-12-05T01:20:48.372Z,0
2016-12-05T01:21:48.985Z,0
2016-12-05T01:22:49.605Z,0
2016-12-05T01:23:50.227Z,0
2016-12-05T01:24:50.861Z,0
2016-12-05T01:25:51.491Z,0
2016-12-05T01:26:52.114Z,0
2016-12-05T01:27:52.742Z,0
2016-12-05T01:28:53.370Z,0
2016-12-05T01:29:53.988Z,0
2016-12-05T01:30:54.631Z,0
2016-12-05T01:31:55.263Z,0
2016-12-05T01:32:55.893Z,0
2016-12-05T01:33:56.523Z,0
2016-12-05T01:34:57.143Z,0
2016-12-05T01:35:57.792Z,0
2016-12-05T01:36:58.420Z,0
2016-12-05T01:37:59.058Z,0
2016-12-05T01:38:59.687Z,0
2016-12-05T01:40:00.294Z,0
2016-12-05T01:41:00.914Z,0
2016-12-05T01:42:01.552Z,0
2016-12-05T01:43:02.191Z,0
2016-12-05T01:44:02.810Z,0
2016-12-05T01:45:03.426Z,0
2016-12-05T01:46:04.047Z,0
2016-12-05T01:47:04.687Z,0
2016-12-05T01:48:05.315Z,0
2016-12-05T01:49:05.946Z,0
2016-12-05T01:50:06.605Z,0
2016-12-05T01:51:07.239Z,0
2016-12-05T01:52:07.872Z,0
2016-12-05T01:53:08.490Z,0
2016-12-05T01:54:09.129Z,0
2016-12-05T01:55:09.750Z,0
2016-12-05T01:56:10.387Z,0
2016-12-05T01:57:11.013Z,0
2016-12-05T01:58:11.632Z,0
2016-12-05T01:59:12.251Z,0
2016-12-05T02:00:12.867Z,0
2016-12-05T02:01:13.481Z,0
2016-12-05T02:02:14.113Z,0
2016-12-05T02:03:14.733Z,0
2016-12-05T02:04:15.343Z,0
2016-12-05T02:05:15.973Z,0
2016-12-05T02:06:16.588Z,0
2016-12-05T02:07:17.217Z,0
2016-12-05T02:08:17.843Z,0
2016-12-05T02:09:18.458Z,0
2016-12-05T02:10:19.077Z,0
2016-12-05T02:11:19.695Z,0
2016-12-05T02:12:26.894Z,0
2016-12-05T02:13:27.504Z,0
2016-12-05T02:14:28.118Z,0
2016-12-05T02:15:28.754Z,0
2016-12-05T02:16:29.870Z,0
2016-12-05T02:17:30.475Z,0
2016-12-05T02:18:31.102Z,0
2016-12-05T02:19:31.720Z,0
2016-12-05T02:20:32.355Z,0
2016-12-05T02:21:32.963Z,0
2016-12-05T02:22:33.603Z,0
2016-12-05T02:23:34.236Z,0
2016-12-05T02:24:34.828Z,0
2016-12-05T02:25:35.446Z,0
2016-12-05T02:26:36.066Z,0
2016-12-05T02:27:36.705Z,0
2016-12-05T02:28:37.320Z,0
2016-12-05T02:29:37.934Z,0
2016-12-05T02:30:38.552Z,0
2016-12-05T02:31:39.174Z,0
2016-12-05T02:32:39.806Z,0
2016-12-05T02:33:40.432Z,0
2016-12-05T02:34:41.055Z,0
2016-12-05T02:35:41.667Z,0
2016-12-05T02:36:42.280Z,0
2016-12-05T02:37:42.906Z,0
2016-12-05T02:38:43.523Z,0
2016-12-05T02:39:44.141Z,0
2016-12-05T02:40:44.757Z,0
2016-12-05T02:41:45.365Z,0
2016-12-05T02:42:45.977Z,0
2016-12-05T02:43:46.592Z,0
2016-12-05T02:44:47.220Z,0
2016-12-05T02:45:47.855Z,0
2016-12-05T02:46:48.501Z,0
2016-12-05T02:47:50.035Z,0
2016-12-05T02:48:50.644Z,0
2016-12-05T02:49:51.289Z,0
2016-12-05T02:50:51.952Z,0
2016-12-05T02:51:52.555Z,0
2016-12-05T02:52:53.196Z,0
2016-12-05T02:53:53.807Z,0
2016-12-05T02:54:54.425Z,0
2016-12-05T02:55:55.037Z,0
2016-12-05T02:56:55.670Z,0
2016-12-05T02:57:56.294Z,0
2016-12-05T02:58:56.916Z,0
2016-12-05T02:59:57.563Z,0
2016-12-05T03:00:58.245Z,0
2016-12-05T03:01:58.889Z,0
2016-12-05T03:02:59.505Z,0
2016-12-05T03:04:00.136Z,0
2016-12-05T03:05:00.781Z,0
2016-12-05T03:06:01.411Z,0
2016-12-05T03:07:02.040Z,0
2016-12-05T03:08:02.656Z,0
2016-12-05T03:09:03.275Z,0
2016-12-05T03:10:03.882Z,0
2016-12-05T03:11:04.512Z,0
2016-12-05T03:12:05.127Z,0
2016-12-05T03:13:05.760Z,0
2016-12-05T03:14:06.384Z,0
2016-12-05T03:15:07.021Z,0
2016-12-05T03:16:07.630Z,0
2016-12-05T03:17:08.242Z,0
2016-12-05T03:18:08.870Z,0
2016-12-05T03:19:09.491Z,0
2016-12-05T03:20:10.104Z,0
2016-12-05T03:21:10.724Z,0
2016-12-05T03:22:11.350Z,0
2016-12-05T03:23:11.977Z,0
2016-12-05T03:24:12.595Z,0
2016-12-05T03:25:13.201Z,0
2016-12-05T03:26:13.816Z,0
2016-12-05T03:27:14.445Z,0
2016-12-05T03:28:15.083Z,0
2016-12-05T03:29:15.699Z,0
2016-12-05T03:30:16.336Z,0
2016-12-05T03:31:16.940Z,0
2016-12-05T03:32:17.549Z,0
2016-12-05T03:33:18.178Z,0
2016-12-05T03:34:18.820Z,0
2016-12-05T03:35:19.429Z,0
2016-12-05T03:36:20.039Z,0
2016-12-05T03:37:20.660Z,0
2016-12-05T03:38:21.276Z,0
2016-12-05T03:39:21.895Z,0
2016-12-05T03:40:22.533Z,0
2016-12-05T03:41:23.163Z,0
2016-12-05T03:42:23.786Z,0
2016-12-05T03:43:24.396Z,0
2016-12-05T03:44:25.022Z,0
2016-12-05T03:45:25.644Z,0
2016-12-05T03:46:26.261Z,0
2016-12-05T03:47:26.887Z,0
2016-12-05T03:48:27.507Z,0
2016-12-05T03:49:28.122Z,0
2016-12-05T03:50:28.746Z,0
2016-12-05T03:51:29.372Z,0
2016-12-05T03:52:29.991Z,0
2016-12-05T03:53:30.611Z,0
2016-12-05T03:54:31.231Z,0
2016-12-05T03:55:31.897Z,0
2016-12-05T03:56:32.556Z,0
2016-12-05T03:57:33.205Z,0
2016-12-05T03:58:33.881Z,0
2016-12-05T03:59:34.489Z,0
2016-12-05T04:00:35.151Z,0
2016-12-05T04:01:35.787Z,0
2016-12-05T04:02:36.403Z,0
2016-12-05T04:03:37.040Z,0
2016-12-05T04:04:37.648Z,0
2016-12-05T04:05:38.268Z,0
2016-12-05T04:06:38.908Z,0
2016-12-05T04:07:39.532Z,0
2016-12-05T04:08:40.149Z,0
2016-12-05T04:09:40.748Z,0
2016-12-05T04:10:41.422Z,0
2016-12-05T04:11:42.096Z,0
2016-12-05T04:12:42.712Z,0
2016-12-05T04:13:43.353Z,0
2016-12-05T04:14:43.964Z,0
2016-12-05T04:15:44.576Z,0
2016-12-05T04:16:45.201Z,0
2016-12-05T04:17:45.826Z,0
2016-12-05T04:18:46.442Z,0
2016-12-05T04:19:47.083Z,0
2016-12-05T04:20:47.714Z,0
2016-12-05T04:21:48.325Z,0
2016-12-05T04:22:48.987Z,0
2016-12-05T04:23:49.619Z,0
2016-12-05T04:24:50.222Z,0
2016-12-05T04:25:50.850Z,0
2016-12-05T04:26:51.471Z,0
2016-12-05T04:27:52.111Z,0
2016-12-05T04:28:52.711Z,0
2016-12-05T04:29:53.327Z,0
2016-12-05T04:30:53.949Z,0
2016-12-05T04:31:54.576Z,0
2016-12-05T04:32:55.196Z,0
2016-12-05T04:33:55.853Z,0
2016-12-05T04:34:56.494Z,0
2016-12-05T04:35:57.103Z,0
2016-12-05T04:36:57.725Z,0
2016-12-05T04:37:58.345Z,0
2016-12-05T04:38:58.985Z,0
2016-12-05T04:39:59.603Z,0
2016-12-05T04:41:00.221Z,0
2016-12-05T04:42:00.831Z,0
2016-12-05T04:43:01.451Z,0
2016-12-05T04:44:02.088Z,0
2016-12-05T04:45:02.695Z,0
2016-12-05T04:46:03.315Z,0
2016-12-05T04:47:03.942Z,0
2016-12-05T04:48:04.552Z,0
2016-12-05T04:49:05.234Z,0
2016-12-05T04:50:05.878Z,0
2016-12-05T04:51:06.527Z,0
2016-12-05T04:52:07.143Z,0
2016-12-05T04:53:07.767Z,0
2016-12-05T04:54:08.394Z,0
2016-12-05T04:55:09.007Z,0
2016-12-05T04:56:09.627Z,0
2016-12-05T04:57:10.302Z,0
2016-12-05T04:58:10.919Z,0
2016-12-05T04:59:11.531Z,0
2016-12-05T05:00:12.161Z,0
2016-12-05T05:01:12.784Z,0
2016-12-05T05:02:13.418Z,0
2016-12-05T05:03:14.036Z,0
2016-12-05T05:04:14.661Z,0
2016-12-05T05:05:15.286Z,0
2016-12-05T05:06:15.908Z,0
2016-12-05T05:07:16.545Z,0
2016-12-05T05:08:17.172Z,0
2016-12-05T05:09:17.797Z,0
2016-12-05T05:10:18.437Z,0
2016-12-05T05:11:19.047Z,0
2016-12-05T05:12:19.675Z,0
2016-12-05T05:13:20.305Z,0
2016-12-05T05:14:20.923Z,0
2016-12-05T05:15:21.531Z,0
2016-12-05T05:16:22.145Z,0
2016-12-05T05:17:22.784Z,0
2016-12-05T05:18:23.387Z,0
2016-12-05T05:19:24.016Z,0
2016-12-05T05:20:24.630Z,0
2016-12-05T05:21:25.255Z,0
2016-12-05T05:22:25.879Z,0
2016-12-05T05:23:26.502Z,0
2016-12-05T05:24:27.132Z,0
2016-12-05T05:25:27.751Z,0
2016-12-05T05:26:28.362Z,0
2016-12-05T05:27:28.995Z,0
2016-12-05T05:28:29.614Z,0
2016-12-05T05:29:30.238Z,0
2016-12-05T05:30:30.860Z,0
2016-12-05T05:31:31.480Z,0
2016-12-05T05:32:32.099Z,0
2016-12-05T05:33:32.733Z,0
2016-12-05T05:34:33.340Z,0
2016-12-05T05:35:33.967Z,0
2016-12-05T05:36:34.582Z,0
2016-12-05T05:37:35.205Z,0
2016-12-05T05:38:35.840Z,0
2016-12-05T05:39:36.461Z,0
2016-12-05T05:40:37.112Z,0
2016-12-05T05:41:37.721Z,0
2016-12-05T05:42:38.339Z,0
2016-12-05T05:43:38.965Z,0
2016-12-05T05:44:39.571Z,0
2016-12-05T05:45:40.185Z,0
2016-12-05T05:46:40.812Z,0
2016-12-05T05:47:41.432Z,0
2016-12-05T05:48:42.050Z,0
2016-12-05T05:49:42.674Z,0
2016-12-05T05:50:43.283Z,0
2016-12-05T05:51:43.918Z,0
2016-12-05T05:52:44.530Z,0
2016-12-05T05:53:45.143Z,0
2016-12-05T05:54:45.767Z,0
2016-12-05T05:55:46.397Z,0
2016-12-05T05:56:47.026Z,0
2016-12-05T05:57:47.643Z,0
2016-12-05T05:58:48.256Z,0
2016-12-05T05:59:48.955Z,0
2016-12-05T06:00:49.570Z,0
2016-12-05T06:01:50.184Z,0
2016-12-05T06:02:50.808Z,0
2016-12-05T06:03:51.430Z,0
2016-12-05T06:04:52.073Z,0
2016-12-05T06:05:52.717Z,0
2016-12-05T06:06:53.335Z,0
2016-12-05T06:07:53.973Z,0
2016-12-05T06:08:54.576Z,0
2016-12-05T06:09:55.201Z,0
2016-12-05T06:10:55.832Z,0
2016-12-05T06:11:56.446Z,0
2016-12-05T06:12:57.061Z,0
2016-12-05T06:13:57.695Z,0
2016-12-05T06:14:58.321Z,0
2016-12-05T06:15:58.943Z,0
2016-12-05T06:16:59.549Z,0
2016-12-05T06:18:00.180Z,0
2016-12-05T06:19:00.789Z,0
2016-12-05T06:20:01.429Z,0
2016-12-05T06:21:02.036Z,0
2016-12-05T06:22:02.643Z,0
2016-12-05T06:23:03.252Z,0
2016-12-05T06:24:03.892Z,0
2016-12-05T06:25:04.501Z,0
2016-12-05T06:26:05.117Z,0
2016-12-05T06:27:05.726Z,0
2016-12-05T06:28:06.367Z,0
2016-12-05T06:29:06.983Z,0
2016-12-05T06:30:07.610Z,0
2016-12-05T06:31:08.225Z,0
2016-12-05T06:32:08.869Z,0
2016-12-05T06:33:09.473Z,0
2016-12-05T06:34:10.093Z,0
2016-12-05T06:35:10.713Z,0
2016-12-05T06:36:11.382Z,0
2016-12-05T06:37:11.990Z,0
2016-12-05T06:38:12.622Z,0
2016-12-05T06:39:13.338Z,4
2016-12-05T06:40:14.073Z,4
2016-12-05T06:41:14.704Z,0
2016-12-05T06:42:15.337Z,4
2016-12-05T06:43:15.946Z,4
2016-12-05T06:44:16.569Z,4
2016-12-05T06:45:17.197Z,4
2016-12-05T06:46:17.801Z,4
2016-12-05T06:47:18.443Z,4
2016-12-05T06:48:19.056Z,8
2016-12-05T06:49:19.691Z,8
2016-12-05T06:50:20.323Z,8
2016-12-05T06:51:20.947Z,12
2016-12-05T06:52:21.683Z,12
2016-12-05T06:53:22.316Z,16
2016-12-05T06:54:22.934Z,20
2016-12-05T06:55:23.545Z,24
2016-12-05T06:56:24.152Z,28
2016-12-05T06:57:24.774Z,32
2016-12-05T06:58:25.391Z,40
2016-12-05T06:59:26.030Z,44
2016-12-05T07:00:26.637Z,52
2016-12-05T07:01:27.272Z,56
2016-12-05T07:02:27.906Z,64
2016-12-05T07:03:28.544Z,72
2016-12-05T07:04:29.158Z,80
2016-12-05T07:05:29.793Z,88
2016-12-05T07:06:30.406Z,100
2016-12-05T07:07:31.025Z,112
2016-12-05T07:08:31.641Z,124
2016-12-05T07:09:32.253Z,136
2016-12-05T07:10:32.866Z,148
2016-12-05T07:11:33.485Z,164
2016-12-05T07:12:34.120Z,176
2016-12-05T07:13:34.771Z,192
2016-12-05T07:14:35.377Z,208
2016-12-05T07:15:35.991Z,224
2016-12-05T07:16:36.612Z,240
2016-12-05T07:17:37.255Z,260
2016-12-05T07:18:37.871Z,280
2016-12-05T07:19:38.485Z,300
2016-12-05T07:20:39.114Z,324
2016-12-05T07:21:39.735Z,344
2016-12-05T07:22:40.345Z,368
2016-12-05T07:23:40.986Z,388
2016-12-05T07:24:41.607Z,416
2016-12-05T07:25:42.220Z,436
2016-12-05T07:26:42.843Z,464
2016-12-05T07:27:43.472Z,488
2016-12-05T07:28:44.097Z,516
2016-12-05T07:29:44.730Z,544
2016-12-05T07:30:45.371Z,572
2016-12-05T07:31:46.041Z,596
2016-12-05T07:32:46.687Z,624
2016-12-05T07:33:47.316Z,656
2016-12-05T07:34:47.973Z,684
2016-12-05T07:35:48.605Z,712
2016-12-05T07:36:49.303Z,740
2016-12-05T07:37:49.931Z,768
2016-12-05T07:38:50.569Z,792
2016-12-05T07:39:51.223Z,824
2016-12-05T07:40:51.875Z,852
2016-12-05T07:41:52.518Z,884
2016-12-05T07:42:53.131Z,912
2016-12-05T07:43:53.781Z,944
2016-12-05T07:44:54.448Z,972
2016-12-05T07:45:55.060Z,1000
2016-12-05T07:46:55.701Z,1032
2016-12-05T07:47:56.371Z,1060
2016-12-05T07:48:57.006Z,1092
2016-12-05T07:49:57.643Z,1120
2016-12-05T07:50:58.265Z,1152
2016-12-05T07:51:58.928Z,1180
2016-12-05T07:52:59.672Z,1216
2016-12-05T07:54:00.348Z,1240
2016-12-05T07:55:00.989Z,1272
2016-12-05T07:56:01.601Z,1304
2016-12-05T07:57:02.221Z,1324
2016-12-05T07:58:02.863Z,1360
2016-12-05T07:59:03.542Z,1388
2016-12-05T08:00:04.215Z,1412
2016-12-05T08:01:04.903Z,1436
2016-12-05T08:02:05.642Z,1464
2016-12-05T08:03:06.264Z,1492
2016-12-05T08:04:06.905Z,1516
2016-12-05T08:05:07.548Z,1544
2016-12-05T08:06:08.201Z,1572
2016-12-05T08:07:08.849Z,1604
2016-12-05T08:08:09.471Z,1636
2016-12-05T08:09:10.092Z,1696
2016-12-05T08:10:10.715Z,1764
2016-12-05T08:11:11.369Z,1788
2016-12-05T08:12:11.994Z,1776
2016-12-05T08:13:12.695Z,1796
2016-12-05T08:14:13.345Z,1804
2016-12-05T08:15:13.945Z,1828
2016-12-05T08:16:14.560Z,1848
2016-12-05T08:17:15.197Z,1872
2016-12-05T08:18:15.808Z,1904
2016-12-05T08:19:16.451Z,1928
2016-12-05T08:20:17.059Z,1964
2016-12-05T08:21:17.686Z,1980
2016-12-05T08:22:18.340Z,1996
2016-12-05T08:23:18.951Z,2032
2016-12-05T08:24:19.591Z,2076
2016-12-05T08:25:20.245Z,2104
2016-12-05T08:26:20.880Z,2148
2016-12-05T08:27:21.517Z,2280
2016-12-05T08:28:22.161Z,2404
2016-12-05T08:29:22.788Z,2676
2016-12-05T08:30:23.429Z,2904
2016-12-05T08:31:24.041Z,3140
2016-12-05T08:32:24.666Z,3192
2016-12-05T08:33:25.307Z,3376
2016-12-05T08:34:25.913Z,3312
2016-12-05T08:35:26.527Z,3368
2016-12-05T08:36:27.150Z,3516
2016-12-05T08:37:27.779Z,3652
2016-12-05T08:38:28.390Z,3600
2016-12-05T08:39:29.001Z,3568
2016-12-05T08:40:29.624Z,3572
2016-12-05T08:41:30.257Z,3536
2016-12-05T08:42:30.905Z,2980
2016-12-05T08:43:31.519Z,2600
2016-12-05T08:44:32.135Z,2560
2016-12-05T08:45:32.749Z,2580
2016-12-05T08:46:33.360Z,2608
2016-12-05T08:47:33.980Z,2600
2016-12-05T08:48:34.591Z,2616
2016-12-05T08:49:35.214Z,2660
2016-12-05T08:50:35.837Z,2704
2016-12-05T08:51:36.451Z,2688
2016-12-05T08:52:37.084Z,2660
2016-12-05T08:53:37.729Z,2648
2016-12-05T08:54:38.353Z,2656
2016-12-05T08:55:38.970Z,2648
2016-12-05T08:56:39.588Z,2648
2016-12-05T08:57:40.230Z,2636
2016-12-05T08:58:40.845Z,2652
2016-12-05T08:59:41.502Z,2668
2016-12-05T09:00:42.118Z,2664
2016-12-05T09:01:42.764Z,2684
2016-12-05T09:02:43.375Z,2720
2016-12-05T09:03:43.988Z,2744
2016-12-05T09:04:44.617Z,2776
2016-12-05T09:05:45.241Z,2836
2016-12-05T09:06:45.866Z,2860
2016-12-05T09:07:46.481Z,2848
2016-12-05T09:08:47.150Z,2840
2016-12-05T09:09:47.771Z,2812
2016-12-05T09:10:48.399Z,2788
2016-12-05T09:11:49.049Z,2776
2016-12-05T09:12:49.687Z,2760
2016-12-05T09:13:50.303Z,2740
2016-12-05T09:14:50.932Z,2728
2016-12-05T09:15:51.560Z,2720
2016-12-05T09:16:52.170Z,2736
2016-12-05T09:17:52.798Z,2732
2016-12-05T09:18:53.446Z,2724
2016-12-05T09:19:54.071Z,2716
2016-12-05T09:20:54.690Z,2704
2016-12-05T09:21:55.309Z,2692
2016-12-05T09:22:55.936Z,2668
2016-12-05T09:23:56.549Z,2664
2016-12-05T09:24:57.203Z,2656
2016-12-05T09:25:57.825Z,2668
2016-12-05T09:26:58.455Z,2668
2016-12-05T09:27:59.086Z,2668
2016-12-05T09:28:59.714Z,2684
2016-12-05T09:30:00.325Z,2688
2016-12-05T09:31:00.949Z,2688
2016-12-05T09:32:01.578Z,2684
2016-12-05T09:33:02.192Z,2680
2016-12-05T09:34:02.815Z,2688
2016-12-05T09:35:03.496Z,2688
2016-12-05T09:36:04.141Z,2692
2016-12-05T09:37:04.783Z,2704
2016-12-05T09:38:05.420Z,2716
2016-12-05T09:39:06.063Z,2716
2016-12-05T09:40:06.722Z,2720
2016-12-05T09:41:07.393Z,2724
2016-12-05T09:42:08.037Z,2728
2016-12-05T09:43:08.685Z,2724
2016-12-05T09:44:09.321Z,2724
2016-12-05T09:45:10.006Z,2724
2016-12-05T09:46:10.636Z,2720
2016-12-05T09:47:11.288Z,2720
2016-12-05T09:48:11.975Z,2720
2016-12-05T09:49:12.633Z,2720
2016-12-05T09:50:13.296Z,2716
2016-12-05T09:51:13.916Z,2724
2016-12-05T09:52:14.577Z,2720
2016-12-05T09:53:15.219Z,2720
2016-12-05T09:54:15.852Z,2704
2016-12-05T09:55:16.472Z,2696
2016-12-05T09:56:17.133Z,2696
2016-12-05T09:57:17.772Z,2696
2016-12-05T09:58:18.397Z,2688
2016-12-05T09:59:19.045Z,2684
2016-12-05T10:00:19.705Z,2684
2016-12-05T10:01:20.366Z,2680
2016-12-05T10:02:21.011Z,2676
2016-12-05T10:03:21.682Z,2672
2016-12-05T10:04:22.314Z,2680
2016-12-05T10:05:23.010Z,2668
2016-12-05T10:06:23.604Z,2656
2016-12-05T10:07:24.250Z,2644
2016-12-05T10:08:24.890Z,2648
2016-12-05T10:09:25.521Z,2644
2016-12-05T10:10:26.166Z,2648
2016-12-05T10:11:26.808Z,2660
2016-12-05T10:12:27.452Z,2644
2016-12-05T10:13:28.100Z,2652
2016-12-05T10:14:28.726Z,2652
2016-12-05T10:15:29.377Z,2648
2016-12-05T10:16:30.047Z,2644
2016-12-05T10:17:30.651Z,2640
2016-12-05T10:18:31.312Z,2628
2016-12-05T10:19:31.946Z,2628
2016-12-05T10:20:32.588Z,2616
2016-12-05T10:21:33.210Z,2620
2016-12-05T10:22:33.855Z,2624
2016-12-05T10:23:34.465Z,2620
2016-12-05T10:24:35.229Z,2628
2016-12-05T10:25:35.793Z,2632
2016-12-05T10:26:36.424Z,2624
2016-12-05T10:27:37.077Z,2620
2016-12-05T10:28:37.719Z,2620
2016-12-05T10:29:38.344Z,2616
2016-12-05T10:30:38.976Z,2616
2016-12-05T10:31:39.631Z,2616
2016-12-05T10:33:00.149Z,2608
2016-12-05T10:34:00.782Z,2616
2016-12-05T10:35:01.434Z,2616
2016-12-05T10:36:02.063Z,2612
2016-12-05T10:37:02.702Z,2608
2016-12-05T10:38:03.354Z,2600
2016-12-05T10:39:03.987Z,2600
2016-12-05T10:40:04.610Z,2596
2016-12-05T10:41:05.254Z,2596
2016-12-05T10:42:05.877Z,2592
2016-12-05T10:43:06.509Z,2592
2016-12-05T10:44:07.142Z,2588
2016-12-05T10:45:07.779Z,2576
2016-12-05T10:46:08.403Z,2576
2016-12-05T10:47:09.038Z,2572
2016-12-05T10:48:09.680Z,2572
2016-12-05T10:49:10.330Z,2568
2016-12-05T10:50:10.980Z,2560
2016-12-05T10:51:11.606Z,2556
2016-12-05T10:52:12.299Z,2552
2016-12-05T10:53:12.898Z,2556
2016-12-05T10:54:13.551Z,2556
2016-12-05T10:55:14.189Z,2548
2016-12-05T10:56:14.824Z,2548
2016-12-05T10:57:15.473Z,2548
2016-12-05T10:58:16.131Z,2544
2016-12-05T10:59:16.757Z,2540
2016-12-05T11:00:17.406Z,2536
2016-12-05T11:01:18.032Z,2532
2016-12-05T11:02:18.691Z,2532
2016-12-05T11:03:19.307Z,2532
2016-12-05T11:04:19.932Z,2524
2016-12-05T11:05:20.588Z,2524
2016-12-05T11:06:21.214Z,2520
2016-12-05T11:07:21.861Z,2516
2016-12-05T11:08:22.535Z,2512
2016-12-05T11:09:23.149Z,2508
2016-12-05T11:10:23.774Z,2508
2016-12-05T11:11:24.412Z,2508
2016-12-05T11:12:25.059Z,2508
2016-12-05T11:13:25.686Z,2500
2016-12-05T11:14:26.315Z,2504
2016-12-05T11:15:26.977Z,2496
2016-12-05T11:16:27.613Z,2492
2016-12-05T11:17:28.256Z,2492
2016-12-05T11:18:28.880Z,2492
2016-12-05T11:19:29.528Z,2488
2016-12-05T11:20:30.193Z,2484
2016-12-05T11:21:30.851Z,2484
2016-12-05T11:22:31.609Z,2484
2016-12-05T11:23:32.161Z,2484
2016-12-05T11:24:32.815Z,2480
2016-12-05T11:25:33.462Z,2476
2016-12-05T11:26:34.125Z,2476
2016-12-05T11:27:34.751Z,2476
2016-12-05T11:28:35.413Z,2472
2016-12-05T11:29:36.052Z,2476
2016-12-05T11:30:36.725Z,2476
2016-12-05T11:31:37.314Z,2468
2016-12-05T11:32:37.966Z,2468
2016-12-05T11:33:38.597Z,2464
2016-12-05T11:34:39.253Z,2464
2016-12-05T11:35:39.924Z,2460
2016-12-05T11:36:40.567Z,2456
2016-12-05T11:37:41.231Z,2456
2016-12-05T11:38:41.858Z,2448
2016-12-05T11:39:42.516Z,2444
2016-12-05T11:40:43.159Z,2436
2016-12-05T11:41:43.840Z,2432
2016-12-05T11:42:44.450Z,2432
2016-12-05T11:43:45.099Z,2428
2016-12-05T11:44:45.746Z,2424
2016-12-05T11:45:46.371Z,2420
2016-12-05T11:46:47.009Z,2412
2016-12-05T11:47:47.695Z,2408
2016-12-05T11:48:48.302Z,2404
2016-12-05T11:49:49.029Z,2400
2016-12-05T11:50:49.695Z,2404
2016-12-05T11:51:50.338Z,2400
2016-12-05T11:52:50.968Z,2392
2016-12-05T11:53:51.621Z,2384
2016-12-05T11:54:52.245Z,2384
2016-12-05T11:55:52.904Z,2376
2016-12-05T11:56:53.534Z,2372
2016-12-05T11:57:54.170Z,2372
2016-12-05T11:58:54.799Z,2368
2016-12-05T11:59:55.423Z,2364
2016-12-05T12:00:56.045Z,2360
2016-12-05T12:01:56.687Z,2352
2016-12-05T12:02:57.337Z,2348
2016-12-05T12:03:57.974Z,2340
2016-12-05T12:04:58.601Z,2336
2016-12-05T12:05:59.231Z,2332
2016-12-05T12:06:59.859Z,2324
2016-12-05T12:08:00.493Z,2324
2016-12-05T12:09:01.121Z,2316
2016-12-05T12:10:01.749Z,2308
2016-12-05T12:11:02.369Z,2300
2016-12-05T12:12:02.999Z,2296
2016-12-05T12:13:03.627Z,2288
2016-12-05T12:14:04.264Z,2284
2016-12-05T12:15:04.888Z,2276
2016-12-05T12:16:05.506Z,2268
2016-12-05T12:17:06.137Z,2256
2016-12-05T12:18:06.756Z,2256
2016-12-05T12:19:07.385Z,2252
2016-12-05T12:20:08.022Z,2248
2016-12-05T12:21:08.658Z,2244
2016-12-05T12:22:09.286Z,2240
2016-12-05T12:23:09.947Z,2236
2016-12-05T12:24:10.571Z,2232
2016-12-05T12:25:11.191Z,2228
2016-12-05T12:26:11.828Z,2224
2016-12-05T12:27:12.467Z,2216
2016-12-05T12:28:13.091Z,2208
2016-12-05T12:29:13.732Z,2208
2016-12-05T12:30:14.352Z,2204
2016-12-05T12:31:14.978Z,2200
2016-12-05T12:32:15.601Z,2200
2016-12-05T12:33:16.232Z,2200
2016-12-05T12:34:16.850Z,2192
2016-12-05T12:35:17.475Z,2184
2016-12-05T12:36:18.096Z,2180
2016-12-05T12:37:18.719Z,2184
2016-12-05T12:38:19.359Z,2188
2016-12-05T12:39:19.981Z,2188
2016-12-05T12:40:20.628Z,2204
2016-12-05T12:41:21.257Z,2220
2016-12-05T12:42:21.929Z,2228
2016-12-05T12:43:22.551Z,2236
2016-12-05T12:44:23.196Z,2236
2016-12-05T12:45:23.848Z,2236
2016-12-05T12:46:24.497Z,2224
2016-12-05T12:47:25.168Z,2212
2016-12-05T12:48:25.792Z,2212
2016-12-05T12:49:26.424Z,2224
2016-12-05T12:50:27.064Z,2212
2016-12-05T12:51:27.701Z,2224
2016-12-05T12:52:28.326Z,2328
2016-12-05T12:53:29.010Z,2464
2016-12-05T12:54:29.655Z,2456
2016-12-05T12:55:30.377Z,2220
2016-12-05T12:56:30.991Z,2120
2016-12-05T12:57:31.611Z,2104
2016-12-05T12:58:32.252Z,2092
2016-12-05T12:59:32.922Z,2076
2016-12-05T13:00:33.657Z,2056
2016-12-05T13:01:34.332Z,2044
2016-12-05T13:02:34.956Z,2024
2016-12-05T13:03:35.683Z,2008
2016-12-05T13:04:36.311Z,1996
2016-12-05T13:05:37.152Z,1980
2016-12-05T13:06:37.793Z,1964
2016-12-05T13:07:38.455Z,1948
2016-12-05T13:08:39.104Z,2044
2016-12-05T13:09:40.280Z,2340
2016-12-05T13:10:40.908Z,2380
2016-12-05T13:11:41.537Z,2236
2016-12-05T13:12:42.189Z,2508
2016-12-05T13:13:42.837Z,2692
2016-12-05T13:14:43.504Z,2316
2016-12-05T13:15:44.147Z,2012
2016-12-05T13:16:44.776Z,1888
2016-12-05T13:17:45.431Z,1856
2016-12-05T13:18:46.111Z,1832
2016-12-05T13:19:46.771Z,1812
2016-12-05T13:20:47.428Z,1796
2016-12-05T13:21:48.068Z,1788
2016-12-05T13:22:48.746Z,1780
2016-12-05T13:23:49.385Z,1772
2016-12-05T13:24:50.012Z,1764
2016-12-05T13:25:50.649Z,1756
2016-12-05T13:26:51.276Z,1744
2016-12-05T13:27:51.937Z,1736
2016-12-05T13:28:52.565Z,1728
2016-12-05T13:29:53.214Z,1716
2016-12-05T13:30:53.852Z,1708
2016-12-05T13:31:54.471Z,1700
2016-12-05T13:32:55.098Z,1684
2016-12-05T13:33:55.758Z,1676
2016-12-05T13:34:56.468Z,1664
2016-12-05T13:35:57.128Z,1652
2016-12-05T13:36:57.777Z,1648
2016-12-05T13:37:58.423Z,1636
2016-12-05T13:38:59.052Z,1628
2016-12-05T13:39:59.664Z,1620
2016-12-05T13:41:00.305Z,1612
2016-12-05T13:42:00.954Z,1600
2016-12-05T13:43:01.614Z,1592
2016-12-05T13:44:02.285Z,1584
2016-12-05T13:45:02.982Z,1568
2016-12-05T13:46:03.685Z,1560
2016-12-05T13:47:04.386Z,1548
2016-12-05T13:48:05.049Z,1536
2016-12-05T13:49:05.680Z,1528
2016-12-05T13:50:06.303Z,1520
2016-12-05T13:51:06.923Z,1508
2016-12-05T13:52:07.544Z,1496
2016-12-05T13:53:08.192Z,1484
2016-12-05T13:54:08.802Z,1472
2016-12-05T13:55:09.436Z,1460
2016-12-05T13:56:10.049Z,1448
2016-12-05T13:57:10.672Z,1436
2016-12-05T13:58:11.284Z,1424
2016-12-05T13:59:11.907Z,1412
2016-12-05T14:00:12.536Z,1400
2016-12-05T14:01:13.160Z,1384
2016-12-05T14:02:13.773Z,1372
2016-12-05T14:03:14.393Z,1360
2016-12-05T14:04:15.019Z,1344
2016-12-05T14:05:15.654Z,1328
2016-12-05T14:06:16.268Z,1316
2016-12-05T14:07:16.897Z,1300
2016-12-05T14:08:17.518Z,1288
2016-12-05T14:09:18.134Z,1272
2016-12-05T14:10:18.772Z,1252
2016-12-05T14:11:19.394Z,1240